createdAt,value
2022-08-04T00:02:30.965Z,1.00
2022-08-04T00:05:11.546Z,1.00
2022-08-04T00:07:44.126Z,1.00
2022-08-04T00:10:17.011Z,1.00
2022-08-04T00:12:50.039Z,1.00
2022-08-04T00:15:18.921Z,1.00
2022-08-04T00:17:47.106Z,1.00
2022-08-04T00:20:18.924Z,1.00
2022-08-04T00:22:48.020Z,1.00
2022-08-04T00:25:15.585Z,1.00
2022-08-04T00:27:42.786Z,1.00
2022-08-04T00:30:10.017Z,1.00
2022-08-04T00:32:40.422Z,1.00
2022-08-04T00:35:09.836Z,1.00
2022-08-04T00:37:38.608Z,1.00
2022-08-04T00:40:16.743Z,1.00
2022-08-04T00:42:59.374Z,1.00
2022-08-04T00:46:15.565Z,1.00
2022-08-04T00:48:37.145Z,1.00
2022-08-04T00:51:24.886Z,1.00
2022-08-04T00:54:26.878Z,1.00
2022-08-04T00:57:28.560Z,1.00
2022-08-04T01:00:15.084Z,1.00
2022-08-04T01:03:06.445Z,1.00
2022-08-04T01:05:56.482Z,1.00
2022-08-04T01:08:35.333Z,1.00
2022-08-04T01:11:10.835Z,1.00
2022-08-04T01:13:58.786Z,1.00
2022-08-04T01:16:27.688Z,1.00
2022-08-04T01:19:01.692Z,1.00
2022-08-04T01:21:31.683Z,1.00
2022-08-04T01:24:26.009Z,1.00
2022-08-04T01:27:30.434Z,1.00
2022-08-04T01:30:01.439Z,1.00
2022-08-04T01:33:16.553Z,1.00
2022-08-04T01:35:47.379Z,1.00
2022-08-04T01:38:40.234Z,1.00
2022-08-04T01:41:09.107Z,1.00
2022-08-04T01:43:42.340Z,4.80
2022-08-04T01:46:12.982Z,8.70
2022-08-04T01:48:42.663Z,14.20
2022-08-04T01:51:12.366Z,15.40
2022-08-04T01:53:42.101Z,16.70
2022-08-04T01:56:10.847Z,17.20
2022-08-04T01:58:39.445Z,15.30
2022-08-04T02:01:12.101Z,11.40
2022-08-04T02:04:18.839Z,9.60
2022-08-04T02:07:10.752Z,8.50
2022-08-04T02:09:58.709Z,8.90
2022-08-04T02:12:27.864Z,10.00
2022-08-04T02:15:07.901Z,8.60
2022-08-04T02:17:43.551Z,7.70
2022-08-04T02:20:22.509Z,9.90
2022-08-04T02:23:09.085Z,9.40
2022-08-04T02:25:48.800Z,10.90
2022-08-04T02:28:25.252Z,13.80
2022-08-04T02:31:26.003Z,17.20
2022-08-04T02:34:23.002Z,20.60
2022-08-04T02:36:54.597Z,21.90
2022-08-04T02:39:22.998Z,24.00
2022-08-04T02:41:52.971Z,28.30
2022-08-04T02:44:23.986Z,30.00
2022-08-04T02:46:54.817Z,30.60
2022-08-04T02:49:23.568Z,31.90
2022-08-04T02:52:00.263Z,30.40
2022-08-04T02:54:39.720Z,29.80
2022-08-04T02:57:11.436Z,29.70
2022-08-04T02:59:55.634Z,28.30
2022-08-04T03:02:47.598Z,27.80
2022-08-04T03:06:01.211Z,28.70
2022-08-04T03:08:53.174Z,27.20
2022-08-04T03:11:41.698Z,27.80
2022-08-04T03:14:36.220Z,31.70
2022-08-04T03:17:30.410Z,33.00
2022-08-04T03:20:12.354Z,36.00
2022-08-04T03:23:12.394Z,36.80
2022-08-04T03:25:57.874Z,38.50
2022-08-04T03:28:57.144Z,39.10
2022-08-04T03:31:41.384Z,40.60
2022-08-04T03:34:14.281Z,42.10
2022-08-04T03:37:16.060Z,40.50
2022-08-04T03:40:09.759Z,41.50
2022-08-04T03:42:59.402Z,43.50
2022-08-04T03:45:32.140Z,44.50
2022-08-04T03:48:39.969Z,41.30
2022-08-04T03:51:36.663Z,43.30
2022-08-04T03:54:24.785Z,45.80
2022-08-04T03:57:00.739Z,47.90
2022-08-04T03:59:54.616Z,49.00
2022-08-04T04:02:51.097Z,49.10
2022-08-04T04:05:59.948Z,51.80
2022-08-04T04:09:08.068Z,51.50
2022-08-04T04:12:16.648Z,50.90
2022-08-04T04:14:58.667Z,50.60
2022-08-04T04:17:49.402Z,48.40
2022-08-04T04:20:39.180Z,47.30
2022-08-04T04:23:44.277Z,49.40
2022-08-04T04:26:55.853Z,48.20
2022-08-04T04:29:25.661Z,43.90
2022-08-04T04:32:29.234Z,41.20
2022-08-04T04:35:18.331Z,39.10
2022-08-04T04:38:08.044Z,39.40
2022-08-04T04:40:48.741Z,38.20
2022-08-04T04:43:51.120Z,36.60
2022-08-04T04:46:37.590Z,35.70
2022-08-04T04:49:33.280Z,31.40
2022-08-04T04:52:14.861Z,30.00
2022-08-04T04:54:53.191Z,26.80
2022-08-04T04:57:53.791Z,24.50
2022-08-04T05:00:13.985Z,22.90
2022-08-04T05:03:06.025Z,21.00
2022-08-04T05:05:57.356Z,16.60
2022-08-04T05:08:44.829Z,15.10
2022-08-04T05:11:36.884Z,11.80
2022-08-04T05:14:39.069Z,5.00
2022-08-04T05:17:12.739Z,1.00
2022-08-04T05:19:55.925Z,1.00
2022-08-04T05:22:39.603Z,1.00
2022-08-04T05:25:13.834Z,1.00
2022-08-04T05:27:49.145Z,1.00
2022-08-04T05:30:18.353Z,1.00
2022-08-04T05:33:00.949Z,1.00
2022-08-04T05:35:49.795Z,1.00
2022-08-04T05:38:27.651Z,1.00
2022-08-04T05:40:56.123Z,1.00
2022-08-04T05:43:24.264Z,1.00
2022-08-04T05:45:52.985Z,1.00
2022-08-04T05:48:20.050Z,99.90
2022-08-04T05:50:48.366Z,1.00
2022-08-04T05:53:16.760Z,1.00
2022-08-04T05:55:57.240Z,99.90
2022-08-04T05:58:26.399Z,46.00
2022-08-04T06:00:54.782Z,1.00
2022-08-04T06:03:24.008Z,1.00
2022-08-04T06:05:52.744Z,1.00
2022-08-04T06:08:19.941Z,1.00
2022-08-04T06:10:48.313Z,1.00
2022-08-04T06:13:48.573Z,1.00
2022-08-04T06:16:12.622Z,1.00
2022-08-04T06:20:04.056Z,1.00
2022-08-04T06:21:48.796Z,1.00
2022-08-04T06:24:21.192Z,1.00
2022-08-04T06:26:50.243Z,1.00
2022-08-04T06:29:26.999Z,1.00
2022-08-04T06:32:28.760Z,1.00
2022-08-04T06:34:46.740Z,1.00
2022-08-04T06:37:42.977Z,1.00
2022-08-04T06:40:30.052Z,1.00
2022-08-04T06:42:52.025Z,1.00
2022-08-04T06:45:20.374Z,1.00
2022-08-04T06:47:48.759Z,1.00
2022-08-04T06:51:26.828Z,1.00
2022-08-04T06:53:04.643Z,1.00
2022-08-04T06:55:33.049Z,1.00
2022-08-04T06:58:03.393Z,1.00
2022-08-04T07:00:32.083Z,1.00
2022-08-04T07:03:00.917Z,1.00
2022-08-04T07:05:28.474Z,1.00
2022-08-04T07:07:57.565Z,1.00
2022-08-04T07:10:27.990Z,1.00
2022-08-04T07:12:57.307Z,1.00
2022-08-04T07:15:25.822Z,1.00
2022-08-04T07:17:54.702Z,1.00
2022-08-04T07:20:30.400Z,1.00
2022-08-04T07:23:07.533Z,1.00
2022-08-04T07:26:00.497Z,1.00
2022-08-04T07:28:29.810Z,1.00
2022-08-04T07:30:58.293Z,1.00
2022-08-04T07:33:25.913Z,1.00
2022-08-04T07:36:09.243Z,1.00
2022-08-04T07:38:49.732Z,1.00
2022-08-04T07:41:38.302Z,1.00
2022-08-04T07:44:06.822Z,1.00
2022-08-04T07:46:33.814Z,1.00
2022-08-04T07:49:01.645Z,1.00
2022-08-04T07:51:30.685Z,1.00
2022-08-04T07:53:59.043Z,1.00
2022-08-04T07:56:27.110Z,1.00
2022-08-04T07:58:54.998Z,1.00
2022-08-04T08:01:23.655Z,1.00
2022-08-04T08:03:52.848Z,1.00
2022-08-04T08:06:32.606Z,1.00
2022-08-04T08:09:13.645Z,1.00
2022-08-04T08:12:36.160Z,1.00
2022-08-04T08:14:35.075Z,1.00
2022-08-04T08:17:02.657Z,1.00
2022-08-04T08:19:31.216Z,1.00
2022-08-04T08:22:00.536Z,1.00
2022-08-04T08:24:35.171Z,1.00
2022-08-04T08:27:04.609Z,1.00
2022-08-04T08:29:34.180Z,1.00
2022-08-04T08:32:07.878Z,1.00
2022-08-04T08:34:36.264Z,1.00
2022-08-04T08:37:41.905Z,1.00
2022-08-04T08:40:09.035Z,1.00
2022-08-04T08:42:56.309Z,1.00
2022-08-04T08:45:35.296Z,1.00
2022-08-04T08:48:20.976Z,1.00
2022-08-04T08:51:09.175Z,1.00
2022-08-04T08:53:50.219Z,1.00
2022-08-04T08:56:47.848Z,1.00
2022-08-04T08:59:20.764Z,1.00
2022-08-04T09:02:02.533Z,1.00
2022-08-04T09:04:51.298Z,1.00
2022-08-04T09:07:58.479Z,1.00
2022-08-04T09:10:47.384Z,1.00
2022-08-04T09:13:32.862Z,1.00
2022-08-04T09:16:23.900Z,1.00
2022-08-04T09:19:37.507Z,1.00
2022-08-04T09:22:12.478Z,1.00
2022-08-04T09:24:42.766Z,1.00
2022-08-04T09:27:43.298Z,1.00
2022-08-04T09:30:12.987Z,1.00
2022-08-04T09:32:41.375Z,1.00
2022-08-04T09:35:55.499Z,1.00
2022-08-04T09:38:50.253Z,1.00
2022-08-04T09:41:49.706Z,1.00
2022-08-04T09:44:50.585Z,1.00
2022-08-04T09:47:39.198Z,1.00
2022-08-04T09:50:40.154Z,1.00
2022-08-04T09:53:12.904Z,1.00
2022-08-04T09:55:54.498Z,1.00
2022-08-04T09:58:28.390Z,1.00
2022-08-04T10:01:06.387Z,1.00
2022-08-04T10:03:38.039Z,1.00
2022-08-04T10:06:34.665Z,1.00
2022-08-04T10:09:20.368Z,1.00
2022-08-04T10:11:56.271Z,1.00
2022-08-04T10:14:35.609Z,1.00
2022-08-04T10:17:15.868Z,1.00
2022-08-04T10:19:42.767Z,1.00
2022-08-04T10:22:36.999Z,1.00
2022-08-04T10:26:03.389Z,1.00
2022-08-04T10:28:23.412Z,1.00
2022-08-04T10:30:59.370Z,1.00
2022-08-04T10:33:32.951Z,1.00
2022-08-04T10:36:31.827Z,1.00
2022-08-04T10:39:42.270Z,1.00
2022-08-04T10:42:22.727Z,1.00
2022-08-04T10:45:05.928Z,1.00
2022-08-04T10:47:40.145Z,1.00
2022-08-04T10:50:11.636Z,1.00
2022-08-04T10:52:55.123Z,1.00
2022-08-04T10:56:07.287Z,1.00
2022-08-04T10:58:21.777Z,1.00
2022-08-04T11:00:49.440Z,1.00
2022-08-04T11:03:33.286Z,1.00
2022-08-04T11:06:03.504Z,1.00
2022-08-04T11:08:36.743Z,1.00
2022-08-04T11:11:22.217Z,1.00
2022-08-04T11:14:04.084Z,1.00
2022-08-04T11:16:51.808Z,1.00
2022-08-04T11:19:44.776Z,1.00
2022-08-04T11:22:22.573Z,1.00
2022-08-04T11:25:28.182Z,1.00
2022-08-04T11:28:23.787Z,1.00
2022-08-04T11:31:07.616Z,1.00
2022-08-04T11:34:03.109Z,1.00
2022-08-04T11:36:51.377Z,1.00
2022-08-04T11:39:38.323Z,1.00
2022-08-04T11:42:23.821Z,1.00
2022-08-04T11:44:52.904Z,1.00
2022-08-04T11:47:34.717Z,1.00
2022-08-04T11:50:20.340Z,1.00
2022-08-04T11:52:49.193Z,1.00
2022-08-04T11:55:19.408Z,1.00
2022-08-04T11:57:46.248Z,1.00
2022-08-04T12:00:24.721Z,1.00
2022-08-04T12:03:06.646Z,1.00
2022-08-04T12:05:41.701Z,1.00
2022-08-04T12:08:22.449Z,1.00
2022-08-04T12:11:19.790Z,1.00
2022-08-04T12:14:00.718Z,1.00
2022-08-04T12:16:42.228Z,1.00
2022-08-04T12:19:18.280Z,1.00
2022-08-04T12:21:55.743Z,1.00
2022-08-04T12:24:46.778Z,1.00
2022-08-04T12:27:30.350Z,1.00
2022-08-04T12:31:00.535Z,1.00
2022-08-04T12:32:57.635Z,1.00
2022-08-04T12:35:58.146Z,1.00
2022-08-04T12:38:34.698Z,1.00
2022-08-04T12:41:05.248Z,1.00
2022-08-04T12:43:34.801Z,1.00
2022-08-04T12:46:08.267Z,1.00
2022-08-04T12:48:37.483Z,1.00
2022-08-04T12:51:08.539Z,1.00
2022-08-04T12:53:57.469Z,1.00
2022-08-04T12:56:28.374Z,1.00
2022-08-04T12:59:06.209Z,1.00
2022-08-04T13:02:11.131Z,1.00
2022-08-04T13:04:36.506Z,1.00
2022-08-04T13:07:12.479Z,1.00
2022-08-04T13:09:40.427Z,1.00
2022-08-04T13:12:20.841Z,1.00
2022-08-04T13:14:51.544Z,1.00
2022-08-04T13:17:19.891Z,1.00
2022-08-04T13:19:53.116Z,1.00
2022-08-04T13:22:26.978Z,1.00
2022-08-04T13:24:57.102Z,1.00
2022-08-04T13:27:48.298Z,1.00
2022-08-04T13:30:23.127Z,1.00
2022-08-04T13:32:58.696Z,1.00
2022-08-04T13:35:55.459Z,1.00
2022-08-04T13:38:17.403Z,1.00
2022-08-04T13:40:45.839Z,1.00
2022-08-04T13:44:16.956Z,1.00
2022-08-04T13:46:28.940Z,1.00
2022-08-04T13:49:25.838Z,1.00
2022-08-04T13:51:57.680Z,1.00
2022-08-04T13:54:45.786Z,1.00
2022-08-04T13:57:27.661Z,1.00
2022-08-04T14:00:00.045Z,1.00
2022-08-04T14:02:39.731Z,1.00
2022-08-04T14:05:18.672Z,1.00
2022-08-04T14:07:50.759Z,1.00
2022-08-04T14:10:17.985Z,1.00
2022-08-04T14:12:52.137Z,1.00
2022-08-04T14:16:01.408Z,1.00
2022-08-04T14:18:32.432Z,1.00
2022-08-04T14:21:03.419Z,1.00
2022-08-04T14:23:50.621Z,1.00
2022-08-04T14:26:32.914Z,1.00
2022-08-04T14:29:28.249Z,1.00
2022-08-04T14:32:05.938Z,1.00
2022-08-04T14:34:41.356Z,1.00
2022-08-04T14:37:17.342Z,1.00
2022-08-04T14:40:07.999Z,1.00
2022-08-04T14:42:55.376Z,1.00
2022-08-04T14:45:38.218Z,1.00
2022-08-04T14:48:10.376Z,1.00
2022-08-04T14:50:41.454Z,1.00
2022-08-04T14:53:11.520Z,1.00
2022-08-04T14:55:40.848Z,1.00
2022-08-04T14:58:36.228Z,1.00
2022-08-04T15:00:59.789Z,1.00
2022-08-04T15:03:28.623Z,1.00
2022-08-04T15:06:05.281Z,1.00
2022-08-04T15:08:34.009Z,1.00
2022-08-04T15:11:03.295Z,1.00
2022-08-04T15:13:33.671Z,1.00
2022-08-04T15:16:08.041Z,1.00
2022-08-04T15:18:37.295Z,1.00
2022-08-04T15:21:05.466Z,1.00
2022-08-04T15:23:38.711Z,1.00
2022-08-04T15:26:23.423Z,1.00
2022-08-04T15:28:55.972Z,1.00
2022-08-04T15:32:06.961Z,1.00
2022-08-04T15:34:12.284Z,1.00
2022-08-04T15:36:57.857Z,1.00
2022-08-04T15:39:25.036Z,1.00
2022-08-04T15:42:00.860Z,1.00
2022-08-04T15:45:05.140Z,1.00
2022-08-04T15:47:32.590Z,1.00
2022-08-04T15:50:10.497Z,1.00
2022-08-04T15:53:10.753Z,1.00
2022-08-04T15:55:44.796Z,1.00
2022-08-04T15:58:16.850Z,1.00
2022-08-04T16:00:49.842Z,1.00
2022-08-04T16:03:53.003Z,1.00
2022-08-04T16:06:22.255Z,1.00
2022-08-04T16:08:57.573Z,1.00
2022-08-04T16:11:31.486Z,1.00
2022-08-04T16:14:01.882Z,1.00
2022-08-04T16:16:38.598Z,1.00
2022-08-04T16:19:13.364Z,1.00
2022-08-04T16:21:54.666Z,1.00
2022-08-04T16:24:37.471Z,1.00
2022-08-04T16:27:09.160Z,1.00
2022-08-04T16:29:37.945Z,1.00
2022-08-04T16:32:04.934Z,1.00
2022-08-04T16:34:47.835Z,1.00
2022-08-04T16:37:19.318Z,1.00
2022-08-04T16:39:50.408Z,1.00
2022-08-04T16:42:30.470Z,1.00
2022-08-04T16:45:11.366Z,1.00
2022-08-04T16:47:47.495Z,1.00
2022-08-04T16:50:22.989Z,1.00
2022-08-04T16:52:52.475Z,1.00
2022-08-04T16:55:27.705Z,1.00
2022-08-04T16:57:57.365Z,1.00
2022-08-04T17:00:38.462Z,1.00
2022-08-04T17:03:06.961Z,1.00
2022-08-04T17:05:38.712Z,1.00
2022-08-04T17:08:29.241Z,1.00
2022-08-04T17:10:55.362Z,1.00
2022-08-04T17:14:03.634Z,1.00
2022-08-04T17:16:18.162Z,1.00
2022-08-04T17:18:51.057Z,1.00
2022-08-04T17:21:23.718Z,1.00
2022-08-04T17:24:14.020Z,1.00
2022-08-04T17:26:54.635Z,1.00
2022-08-04T17:29:42.831Z,1.00
2022-08-04T17:32:16.483Z,1.00
2022-08-04T17:34:50.556Z,1.00
2022-08-04T17:37:40.037Z,1.00
2022-08-04T17:40:11.223Z,1.00
2022-08-04T17:42:39.858Z,1.00
2022-08-04T17:45:49.315Z,1.00
2022-08-04T17:47:56.086Z,1.00
2022-08-04T17:50:28.668Z,1.00
2022-08-04T17:53:12.299Z,1.00
2022-08-04T17:55:46.807Z,1.00
2022-08-04T17:58:23.357Z,1.00
2022-08-04T18:01:22.499Z,1.00
2022-08-04T18:03:51.752Z,1.00
2022-08-04T18:06:25.428Z,1.00
2022-08-04T18:08:58.824Z,1.00
2022-08-04T18:11:29.877Z,1.00
2022-08-04T18:14:10.376Z,1.00
2022-08-04T18:16:46.799Z,1.00
2022-08-04T18:19:18.850Z,1.00
2022-08-04T18:21:59.615Z,1.00
2022-08-04T18:24:35.434Z,1.00
2022-08-04T18:27:17.954Z,1.00
2022-08-04T18:32:33.160Z,1.00
2022-08-04T18:35:07.183Z,1.00
2022-08-04T18:38:11.519Z,1.00
2022-08-04T18:40:29.909Z,1.00
2022-08-04T18:43:03.619Z,1.00
2022-08-04T18:45:34.161Z,1.00
2022-08-04T18:48:04.051Z,1.00
2022-08-04T18:50:59.327Z,1.00
2022-08-04T18:53:18.055Z,1.00
2022-08-04T18:55:57.258Z,1.00
2022-08-04T18:58:27.496Z,1.00
2022-08-04T19:00:55.893Z,1.00
2022-08-04T19:03:23.580Z,1.00
2022-08-04T19:05:51.695Z,1.00
2022-08-04T19:08:34.169Z,1.00
2022-08-04T19:11:36.821Z,1.00
2022-08-04T19:13:54.672Z,1.00
2022-08-04T19:16:28.478Z,1.00
2022-08-04T19:18:56.627Z,1.00
2022-08-04T19:22:00.768Z,1.00
2022-08-04T19:24:31.869Z,1.00
2022-08-04T19:27:07.430Z,1.00
2022-08-04T19:29:37.996Z,13.60
2022-08-04T19:34:57.050Z,93.10
2022-08-04T19:37:58.258Z,99.90
2022-08-04T19:40:13.043Z,99.90
2022-08-04T19:42:40.439Z,99.90
2022-08-04T19:45:07.910Z,99.90
2022-08-04T19:48:16.687Z,99.90
2022-08-04T19:50:23.677Z,99.90
2022-08-04T19:52:52.571Z,99.90
2022-08-04T19:55:22.698Z,99.90
2022-08-04T19:58:06.023Z,99.90
2022-08-04T20:00:34.622Z,99.90
2022-08-04T20:03:11.346Z,99.90
2022-08-04T20:05:53.387Z,99.90
2022-08-04T20:08:29.171Z,99.90
2022-08-04T20:10:57.947Z,99.90
2022-08-04T20:13:37.032Z,99.90
2022-08-04T20:16:08.679Z,99.90
2022-08-04T20:18:54.901Z,99.90
2022-08-04T20:21:36.583Z,99.90
2022-08-04T20:24:39.169Z,99.90
2022-08-04T20:26:58.500Z,99.90
2022-08-04T20:29:40.160Z,99.90
2022-08-04T20:32:09.507Z,99.90
2022-08-04T20:34:37.070Z,99.90
2022-08-04T20:37:04.215Z,99.90
2022-08-04T20:39:31.513Z,99.90
2022-08-04T20:41:58.584Z,99.90
2022-08-04T20:44:25.952Z,99.90
2022-08-04T20:46:53.275Z,99.90
2022-08-04T20:49:20.077Z,99.90
2022-08-04T20:51:50.244Z,99.90
2022-08-04T20:54:22.829Z,99.90
2022-08-04T20:57:04.051Z,99.90
2022-08-04T20:59:31.342Z,99.90
2022-08-04T21:01:58.204Z,99.90
2022-08-04T21:04:31.515Z,99.90
2022-08-04T21:07:00.075Z,99.90
2022-08-04T21:09:38.441Z,99.90
2022-08-04T21:12:10.948Z,99.90
2022-08-04T21:17:58.143Z,99.90
2022-08-04T21:20:32.385Z,1.00
2022-08-04T21:23:01.944Z,1.00
2022-08-04T21:25:30.748Z,1.00
2022-08-04T21:27:58.719Z,1.00
2022-08-04T21:30:26.802Z,56.80
2022-08-04T21:32:55.004Z,99.90
2022-08-04T21:38:16.340Z,1.00
2022-08-04T21:41:04.587Z,1.00
2022-08-04T21:43:42.291Z,1.00
2022-08-04T21:46:10.291Z,1.00
2022-08-04T21:48:38.989Z,1.00
2022-08-04T21:51:55.802Z,1.00
2022-08-04T21:54:08.597Z,1.00
2022-08-04T21:56:36.266Z,1.00
2022-08-04T21:59:11.085Z,99.90
2022-08-04T22:04:29.273Z,1.00
2022-08-04T22:06:56.167Z,1.00
2022-08-04T22:09:23.013Z,1.00
2022-08-04T22:11:50.945Z,1.00
2022-08-04T22:14:29.128Z,99.90
2022-08-04T22:17:01.197Z,99.90
2022-08-04T22:19:39.861Z,1.00
2022-08-04T22:22:25.497Z,53.90
2022-08-04T22:28:01.287Z,6.70
2022-08-04T22:30:36.998Z,1.00
2022-08-04T22:33:07.459Z,99.90
2022-08-04T22:35:43.847Z,99.90
2022-08-04T22:38:29.014Z,1.00
2022-08-04T22:41:11.004Z,30.00
2022-08-04T22:43:38.672Z,1.00
2022-08-04T22:46:11.971Z,99.90
2022-08-04T22:48:43.256Z,1.00
2022-08-04T22:51:10.615Z,99.90
2022-08-04T22:53:40.044Z,38.90
2022-08-04T22:56:10.730Z,99.90
2022-08-04T22:58:40.184Z,1.00
2022-08-04T23:01:08.795Z,99.90
2022-08-04T23:03:38.447Z,1.00
2022-08-04T23:06:10.842Z,99.90
2022-08-04T23:08:43.121Z,1.00
2022-08-04T23:11:14.060Z,1.00
2022-08-04T23:13:41.787Z,1.00
2022-08-04T23:16:09.682Z,79.40
2022-08-04T23:18:40.097Z,70.40
2022-08-04T23:21:10.289Z,99.90
2022-08-04T23:23:47.672Z,99.90
2022-08-04T23:26:27.987Z,99.90
2022-08-04T23:28:56.275Z,99.90
2022-08-04T23:31:23.818Z,99.90
2022-08-04T23:33:52.153Z,99.90
2022-08-04T23:36:30.024Z,99.90
2022-08-04T23:39:04.161Z,99.90
2022-08-04T23:41:54.562Z,99.90
2022-08-04T23:44:25.152Z,99.90
2022-08-04T23:47:04.520Z,99.90
2022-08-04T23:49:44.906Z,99.90
2022-08-04T23:52:27.672Z,99.90
2022-08-04T23:55:00.148Z,99.90
2022-08-04T23:57:31.041Z,99.90
